createdAt,value
2022-10-05T00:01:46.998Z,92.13
2022-10-05T00:04:15.624Z,91.96
2022-10-05T00:06:51.079Z,91.83
2022-10-05T00:09:21.285Z,92.13
2022-10-05T00:11:48.858Z,92.72
2022-10-05T00:14:30.249Z,92.34
2022-10-05T00:16:57.555Z,92.52
2022-10-05T00:19:30.953Z,92.23
2022-10-05T00:22:19.294Z,92.05
2022-10-05T00:24:48.531Z,91.94
2022-10-05T00:27:15.093Z,92.74
2022-10-05T00:29:41.653Z,92.79
2022-10-05T00:32:10.596Z,92.80
2022-10-05T00:34:37.848Z,92.86
2022-10-05T00:37:05.249Z,92.69
2022-10-05T00:39:33.172Z,92.96
2022-10-05T00:41:59.649Z,92.68
2022-10-05T00:44:45.861Z,92.72
2022-10-05T00:47:12.269Z,93.06
2022-10-05T00:49:57.489Z,93.00
2022-10-05T00:52:51.666Z,92.62
2022-10-05T00:55:20.823Z,93.02
2022-10-05T00:57:56.395Z,92.97
2022-10-05T01:00:26.805Z,93.11
2022-10-05T01:03:35.231Z,93.10
2022-10-05T01:06:23.291Z,93.37
2022-10-05T01:09:06.871Z,93.50
2022-10-05T01:11:50.935Z,93.38
2022-10-05T01:14:27.348Z,93.63
2022-10-05T01:17:18.526Z,93.58
2022-10-05T01:20:05.600Z,93.24
2022-10-05T01:22:44.278Z,93.45
2022-10-05T01:25:28.999Z,92.89
2022-10-05T01:28:19.228Z,93.21
2022-10-05T01:31:06.102Z,93.51
2022-10-05T01:33:46.312Z,93.06
2022-10-05T01:36:36.161Z,92.99
2022-10-05T01:39:02.605Z,92.79
2022-10-05T01:41:49.272Z,93.10
2022-10-05T01:44:21.101Z,92.83
2022-10-05T01:47:03.673Z,92.64
2022-10-05T01:49:38.766Z,93.12
2022-10-05T01:52:14.409Z,92.93
2022-10-05T01:54:40.892Z,92.33
2022-10-05T01:57:13.054Z,92.50
2022-10-05T01:59:54.878Z,92.41
2022-10-05T02:02:24.343Z,92.39
2022-10-05T02:05:03.532Z,92.35
2022-10-05T02:07:42.442Z,92.31
2022-10-05T02:10:30.960Z,92.27
2022-10-05T02:13:38.298Z,92.38
2022-10-05T02:16:10.328Z,92.34
2022-10-05T02:18:43.897Z,92.16
2022-10-05T02:21:11.002Z,92.21
2022-10-05T02:23:40.573Z,92.11
2022-10-05T02:26:11.140Z,91.93
2022-10-05T02:28:53.397Z,92.04
2022-10-05T02:31:25.008Z,91.76
2022-10-05T02:33:51.606Z,91.65
2022-10-05T02:36:27.549Z,92.20
2022-10-05T02:39:05.818Z,91.95
2022-10-05T02:41:42.325Z,92.19
2022-10-05T02:44:24.485Z,91.94
2022-10-05T02:47:23.894Z,91.62
2022-10-05T02:49:59.426Z,91.90
2022-10-05T02:52:41.221Z,91.47
2022-10-05T02:55:23.220Z,91.72
2022-10-05T02:57:49.664Z,92.14
2022-10-05T03:00:19.618Z,92.11
2022-10-05T03:03:08.211Z,91.95
2022-10-05T03:05:49.319Z,92.12
2022-10-05T03:08:42.066Z,91.68
2022-10-05T03:11:18.893Z,91.89
2022-10-05T03:14:22.857Z,91.79
2022-10-05T03:17:11.203Z,91.59
2022-10-05T03:19:49.942Z,91.92
2022-10-05T03:22:31.415Z,92.16
2022-10-05T03:25:16.612Z,91.80
2022-10-05T03:27:57.255Z,91.96
2022-10-05T03:30:26.579Z,92.14
2022-10-05T03:32:55.730Z,91.91
2022-10-05T03:36:06.836Z,92.00
2022-10-05T03:38:39.089Z,92.40
2022-10-05T03:41:11.554Z,91.96
2022-10-05T03:43:37.980Z,91.88
2022-10-05T03:46:22.869Z,91.88
2022-10-05T03:48:56.821Z,92.12
2022-10-05T03:51:29.790Z,92.33
2022-10-05T03:54:05.162Z,92.03
2022-10-05T03:56:38.636Z,92.02
2022-10-05T03:59:17.320Z,92.21
2022-10-05T04:01:55.092Z,92.14
2022-10-05T04:04:49.752Z,92.09
2022-10-05T04:07:29.666Z,92.09
2022-10-05T04:09:58.150Z,92.19
2022-10-05T04:12:27.327Z,92.17
2022-10-05T04:14:57.055Z,92.79
2022-10-05T04:17:40.855Z,92.36
2022-10-05T04:20:25.606Z,92.91
2022-10-05T04:23:07.834Z,92.71
2022-10-05T04:25:41.674Z,92.91
2022-10-05T04:28:22.476Z,93.12
2022-10-05T04:30:53.312Z,92.68
2022-10-05T04:33:21.392Z,92.96
2022-10-05T04:35:56.825Z,93.35
2022-10-05T04:38:46.188Z,93.46
2022-10-05T04:41:43.594Z,93.47
2022-10-05T04:44:47.894Z,93.35
2022-10-05T04:47:26.449Z,93.19
2022-10-05T04:50:07.805Z,93.56
2022-10-05T04:52:55.581Z,93.82
2022-10-05T04:55:24.650Z,93.64
2022-10-05T04:58:06.300Z,93.56
2022-10-05T05:01:05.122Z,93.42
2022-10-05T05:03:40.766Z,93.67
2022-10-05T05:06:28.656Z,93.68
2022-10-05T05:09:07.321Z,93.91
2022-10-05T05:11:51.270Z,93.86
2022-10-05T05:14:39.102Z,93.62
2022-10-05T05:17:31.040Z,93.63
2022-10-05T05:20:32.718Z,93.48
2022-10-05T05:23:21.034Z,94.04
2022-10-05T05:26:01.389Z,94.70
2022-10-05T05:28:59.605Z,94.47
2022-10-05T05:32:09.157Z,94.59
2022-10-05T05:34:55.042Z,95.32
2022-10-05T05:37:43.568Z,95.46
2022-10-05T05:40:09.966Z,95.84
2022-10-05T05:42:45.333Z,96.22
2022-10-05T05:45:20.910Z,96.52
2022-10-05T05:47:57.373Z,96.91
2022-10-05T05:50:34.796Z,96.97
2022-10-05T05:53:01.228Z,96.90
2022-10-05T05:55:50.190Z,97.37
2022-10-05T05:58:16.633Z,97.49
2022-10-05T06:00:58.870Z,97.47
2022-10-05T06:03:39.487Z,97.22
2022-10-05T06:06:19.897Z,97.94
2022-10-05T06:09:03.047Z,97.98
2022-10-05T06:11:37.303Z,97.83
2022-10-05T06:14:13.050Z,97.91
2022-10-05T06:16:47.423Z,98.62
2022-10-05T06:19:16.781Z,98.73
2022-10-05T06:21:46.323Z,98.90
2022-10-05T06:24:21.057Z,98.67
2022-10-05T06:27:05.587Z,99.04
2022-10-05T06:29:55.069Z,98.61
2022-10-05T06:32:34.889Z,98.53
2022-10-05T06:35:08.773Z,99.36
2022-10-05T06:37:55.005Z,99.25
2022-10-05T06:40:37.769Z,99.62
2022-10-05T06:43:04.206Z,99.60
2022-10-05T06:45:45.594Z,99.92
2022-10-05T06:48:27.118Z,99.59
2022-10-05T06:51:04.112Z,99.47
2022-10-05T06:54:15.253Z,99.68
2022-10-05T06:57:23.798Z,99.83
2022-10-05T06:59:55.326Z,99.04
2022-10-05T07:02:30.869Z,98.56
2022-10-05T07:05:12.438Z,98.86
2022-10-05T07:07:57.782Z,98.46
2022-10-05T07:10:41.557Z,98.33
2022-10-05T07:13:36.014Z,97.98
2022-10-05T07:16:45.578Z,98.02
2022-10-05T07:19:52.449Z,97.57
2022-10-05T07:22:36.940Z,97.68
2022-10-05T07:25:23.885Z,97.58
2022-10-05T07:28:00.143Z,97.46
2022-10-05T07:30:26.680Z,97.01
2022-10-05T07:33:12.153Z,97.19
2022-10-05T07:36:18.629Z,97.18
2022-10-05T07:38:52.707Z,96.80
2022-10-05T07:41:28.133Z,96.58
2022-10-05T07:44:13.072Z,96.49
2022-10-05T07:46:59.865Z,96.64
2022-10-05T07:49:28.979Z,96.16
2022-10-05T07:52:00.569Z,96.24
2022-10-05T07:54:36.914Z,96.23
2022-10-05T07:57:15.549Z,95.93
2022-10-05T07:59:50.065Z,95.95
2022-10-05T08:03:01.121Z,95.77
2022-10-05T08:05:38.233Z,95.42
2022-10-05T08:08:23.730Z,95.04
2022-10-05T08:11:13.409Z,94.75
2022-10-05T08:13:57.158Z,94.98
2022-10-05T08:16:28.936Z,94.90
2022-10-05T08:19:02.506Z,95.21
2022-10-05T08:21:38.126Z,95.10
2022-10-05T08:24:22.931Z,95.15
2022-10-05T08:27:05.116Z,95.36
2022-10-05T08:30:11.137Z,94.89
2022-10-05T08:32:57.122Z,95.65
2022-10-05T08:35:34.870Z,95.65
2022-10-05T08:38:16.739Z,95.25
2022-10-05T08:41:13.223Z,95.83
2022-10-05T08:44:10.853Z,96.13
2022-10-05T08:47:06.238Z,96.35
2022-10-05T08:49:57.012Z,96.42
2022-10-05T08:52:29.257Z,96.79
2022-10-05T08:55:06.179Z,96.67
2022-10-05T08:57:41.883Z,96.79
2022-10-05T09:00:13.061Z,96.87
2022-10-05T09:02:57.707Z,96.22
2022-10-05T09:05:42.824Z,96.57
2022-10-05T09:08:15.369Z,96.64
2022-10-05T09:11:00.683Z,96.21
2022-10-05T09:14:04.456Z,96.10
2022-10-05T09:16:52.865Z,96.45
2022-10-05T09:19:43.841Z,96.07
2022-10-05T09:22:38.314Z,95.84
2022-10-05T09:25:35.749Z,96.22
2022-10-05T09:28:18.213Z,95.93
2022-10-05T09:31:02.130Z,96.81
2022-10-05T09:34:13.521Z,97.87
2022-10-05T09:37:08.630Z,98.17
2022-10-05T09:40:05.743Z,98.43
2022-10-05T09:42:45.154Z,99.60
2022-10-05T09:45:45.705Z,98.54
2022-10-05T09:48:30.879Z,99.01
2022-10-05T09:51:06.475Z,99.76
2022-10-05T09:53:46.547Z,98.90
2022-10-05T09:56:33.376Z,98.57
2022-10-05T09:59:11.174Z,97.48
2022-10-05T10:01:40.301Z,96.96
2022-10-05T10:04:12.867Z,96.26
2022-10-05T10:06:54.494Z,95.82
2022-10-05T10:09:38.837Z,96.00
2022-10-05T10:12:08.297Z,95.94
2022-10-05T10:15:16.329Z,96.18
2022-10-05T10:18:03.447Z,96.11
2022-10-05T10:21:03.672Z,95.63
2022-10-05T10:24:14.716Z,95.97
2022-10-05T10:26:47.785Z,95.83
2022-10-05T10:29:41.983Z,95.31
2022-10-05T10:32:26.286Z,95.43
2022-10-05T10:35:18.926Z,95.34
2022-10-05T10:38:23.857Z,95.83
2022-10-05T10:41:27.902Z,94.42
2022-10-05T10:44:23.681Z,94.23
2022-10-05T10:47:11.705Z,94.45
2022-10-05T10:50:16.319Z,94.39
2022-10-05T10:53:39.385Z,94.29
2022-10-05T10:56:33.095Z,93.74
2022-10-05T10:59:26.563Z,94.01
2022-10-05T11:02:01.566Z,94.33
2022-10-05T11:04:40.507Z,94.02
2022-10-05T11:07:36.126Z,94.29
2022-10-05T11:10:20.649Z,92.91
2022-10-05T11:13:24.889Z,92.33
2022-10-05T11:19:16.451Z,91.67
2022-10-05T11:22:07.342Z,91.25
2022-10-05T11:25:06.149Z,91.16
2022-10-05T11:28:10.220Z,90.39
2022-10-05T11:31:10.908Z,90.63
2022-10-05T11:34:14.238Z,91.16
2022-10-05T11:37:09.174Z,91.42
2022-10-05T11:39:55.568Z,91.22
2022-10-05T11:42:28.138Z,90.63
2022-10-05T11:45:22.582Z,89.44
2022-10-05T11:48:00.682Z,90.18
2022-10-05T11:50:50.654Z,90.47
2022-10-05T11:53:29.476Z,90.11
2022-10-05T11:56:05.015Z,90.38
2022-10-05T11:58:42.333Z,89.54
2022-10-05T12:01:29.370Z,90.31
2022-10-05T12:04:08.565Z,89.78
2022-10-05T12:06:52.979Z,89.92
2022-10-05T12:09:34.411Z,90.06
2022-10-05T12:12:00.876Z,90.07
2022-10-05T12:14:45.617Z,90.48
2022-10-05T12:17:14.774Z,90.98
2022-10-05T12:19:45.970Z,90.88
2022-10-05T12:22:21.858Z,90.68
2022-10-05T12:25:04.757Z,89.67
2022-10-05T12:27:39.514Z,89.90
2022-10-05T12:30:16.670Z,90.43
2022-10-05T12:33:02.212Z,90.73
2022-10-05T12:35:55.705Z,90.91
2022-10-05T12:38:28.604Z,90.83
2022-10-05T12:41:27.278Z,90.92
2022-10-05T12:44:12.271Z,90.46
2022-10-05T12:46:54.255Z,90.96
2022-10-05T12:49:43.848Z,91.14
2022-10-05T12:52:43.368Z,91.02
2022-10-05T12:55:12.848Z,91.11
2022-10-05T12:57:57.871Z,91.48
2022-10-05T13:00:24.754Z,91.15
2022-10-05T13:03:01.700Z,90.93
2022-10-05T13:05:40.764Z,90.11
2022-10-05T13:08:45.251Z,90.36
2022-10-05T13:11:16.959Z,90.75
2022-10-05T13:13:54.771Z,90.79
2022-10-05T13:16:39.964Z,90.29
2022-10-05T13:19:35.737Z,90.57
2022-10-05T13:22:25.476Z,90.43
2022-10-05T13:25:20.529Z,90.26
2022-10-05T13:28:08.811Z,89.78
2022-10-05T13:30:36.977Z,89.27
2022-10-05T13:33:20.299Z,89.55
2022-10-05T13:36:10.648Z,88.79
2022-10-05T13:39:00.666Z,88.32
2022-10-05T13:41:36.641Z,88.55
2022-10-05T13:44:18.914Z,87.49
2022-10-05T13:46:53.681Z,87.68
2022-10-05T13:49:49.549Z,87.16
2022-10-05T13:52:42.393Z,87.25
2022-10-05T13:55:35.006Z,86.87
2022-10-05T13:58:07.626Z,87.17
2022-10-05T14:00:44.898Z,87.16
2022-10-05T14:03:29.976Z,86.17
2022-10-05T14:05:59.881Z,85.66
2022-10-05T14:08:46.194Z,85.56
2022-10-05T14:11:26.749Z,85.34
2022-10-05T14:14:03.889Z,85.31
2022-10-05T14:16:33.289Z,84.87
2022-10-05T14:19:05.714Z,84.38
2022-10-05T14:21:42.993Z,83.42
2022-10-05T14:24:43.202Z,83.63
2022-10-05T14:27:33.100Z,80.72
2022-10-05T14:30:16.952Z,78.21
2022-10-05T14:33:05.872Z,77.03
2022-10-05T14:35:52.449Z,76.13
2022-10-05T14:38:26.475Z,73.81
2022-10-05T14:41:07.874Z,74.67
2022-10-05T14:43:35.175Z,74.34
2022-10-05T14:46:23.348Z,74.48
2022-10-05T14:49:24.166Z,76.19
2022-10-05T14:51:51.767Z,75.86
2022-10-05T14:54:36.705Z,77.18
2022-10-05T14:57:06.628Z,77.35
2022-10-05T14:59:36.173Z,76.88
2022-10-05T15:02:21.161Z,76.25
2022-10-05T15:05:00.293Z,75.14
2022-10-05T15:07:49.213Z,75.57
2022-10-05T15:10:30.700Z,74.09
2022-10-05T15:13:11.313Z,73.08
2022-10-05T15:15:46.986Z,72.30
2022-10-05T15:18:27.230Z,71.86
2022-10-05T15:21:21.592Z,70.07
2022-10-05T15:23:59.233Z,69.09
2022-10-05T15:26:50.570Z,69.02
2022-10-05T15:29:38.859Z,69.42
2022-10-05T15:32:23.980Z,68.31
2022-10-05T15:35:08.274Z,67.60
2022-10-05T15:37:44.535Z,68.97
2022-10-05T15:40:36.536Z,68.44
2022-10-05T15:43:10.201Z,67.51
2022-10-05T15:45:42.893Z,67.30
2022-10-05T15:48:21.553Z,67.63
2022-10-05T15:51:00.584Z,67.49
2022-10-05T15:53:48.501Z,67.31
2022-10-05T15:56:33.703Z,68.00
2022-10-05T15:59:18.540Z,66.79
2022-10-05T16:01:51.845Z,65.97
2022-10-05T16:04:28.638Z,65.64
2022-10-05T16:07:18.493Z,65.79
2022-10-05T16:09:49.856Z,65.41
2022-10-05T16:12:31.400Z,65.02
2022-10-05T16:15:20.274Z,64.99
2022-10-05T16:18:18.251Z,65.45
2022-10-05T16:20:57.524Z,65.25
2022-10-05T16:23:50.317Z,65.75
2022-10-05T16:26:36.436Z,65.63
2022-10-05T16:29:13.003Z,66.68
2022-10-05T16:32:00.032Z,68.05
2022-10-05T16:34:45.147Z,67.48
2022-10-05T16:37:23.688Z,67.74
2022-10-05T16:39:55.031Z,67.72
2022-10-05T16:42:34.935Z,68.01
2022-10-05T16:45:45.605Z,67.91
2022-10-05T16:48:23.124Z,67.72
2022-10-05T16:51:05.243Z,67.56
2022-10-05T16:53:47.055Z,67.45
2022-10-05T16:56:18.637Z,67.44
2022-10-05T16:59:06.803Z,67.74
2022-10-05T17:01:50.153Z,68.59
2022-10-05T17:04:34.694Z,68.44
2022-10-05T17:07:39.412Z,68.01
2022-10-05T17:10:27.827Z,69.12
2022-10-05T17:13:31.456Z,71.47
2022-10-05T17:16:14.482Z,72.37
2022-10-05T17:18:56.212Z,74.34
2022-10-05T17:21:41.318Z,75.10
2022-10-05T17:24:23.119Z,76.04
2022-10-05T17:27:19.062Z,76.14
2022-10-05T17:29:49.949Z,76.88
2022-10-05T17:32:16.384Z,76.71
2022-10-05T17:35:01.386Z,76.25
2022-10-05T17:37:27.816Z,77.99
2022-10-05T17:39:56.084Z,78.24
2022-10-05T17:42:32.520Z,78.38
2022-10-05T17:45:14.264Z,78.34
2022-10-05T17:48:11.351Z,77.61
2022-10-05T17:50:58.978Z,78.29
2022-10-05T17:53:53.922Z,78.09
2022-10-05T17:56:22.299Z,78.30
2022-10-05T17:58:57.561Z,77.86
2022-10-05T18:01:36.043Z,78.04
2022-10-05T18:04:37.924Z,77.80
2022-10-05T18:07:19.135Z,78.01
2022-10-05T18:09:56.275Z,78.13
2022-10-05T18:12:24.200Z,78.60
2022-10-05T18:15:07.380Z,78.92
2022-10-05T18:17:51.350Z,78.32
2022-10-05T18:20:34.955Z,79.20
2022-10-05T18:23:07.257Z,79.99
2022-10-05T18:25:38.186Z,79.59
2022-10-05T18:28:13.905Z,79.90
2022-10-05T18:31:01.176Z,79.02
2022-10-05T18:33:50.612Z,79.26
2022-10-05T18:36:24.092Z,79.44
2022-10-05T18:39:15.101Z,79.54
2022-10-05T18:42:24.565Z,79.26
2022-10-05T18:45:00.641Z,79.31
2022-10-05T18:47:47.869Z,78.93
2022-10-05T18:50:25.499Z,78.97
2022-10-05T18:53:04.648Z,79.30
2022-10-05T18:56:02.180Z,78.96
2022-10-05T18:58:36.797Z,78.64
2022-10-05T19:01:12.004Z,78.58
2022-10-05T19:03:49.148Z,79.02
2022-10-05T19:06:24.297Z,79.18
2022-10-05T19:08:57.377Z,79.24
2022-10-05T19:11:59.305Z,78.91
2022-10-05T19:14:35.081Z,79.04
2022-10-05T19:17:45.198Z,78.96
2022-10-05T19:20:25.134Z,78.83
2022-10-05T19:23:29.858Z,78.97
2022-10-05T19:26:08.986Z,78.82
2022-10-05T19:28:41.128Z,78.90
2022-10-05T19:31:26.507Z,78.07
2022-10-05T19:34:13.409Z,78.27
2022-10-05T19:36:51.965Z,77.91
2022-10-05T19:39:27.462Z,77.38
2022-10-05T19:42:23.048Z,77.49
2022-10-05T19:44:52.555Z,77.18
2022-10-05T19:47:22.273Z,77.22
2022-10-05T19:49:51.490Z,77.25
2022-10-05T19:52:44.176Z,77.00
2022-10-05T19:55:26.577Z,76.90
2022-10-05T19:57:56.285Z,77.06
2022-10-05T20:00:32.803Z,76.90
2022-10-05T20:03:29.508Z,77.10
2022-10-05T20:06:07.782Z,77.36
2022-10-05T20:08:43.777Z,77.33
2022-10-05T20:11:18.803Z,77.46
2022-10-05T20:13:58.418Z,76.89
2022-10-05T20:19:36.027Z,77.22
2022-10-05T20:22:27.328Z,77.60
2022-10-05T20:24:56.704Z,77.16
2022-10-05T20:27:37.313Z,77.43
2022-10-05T20:30:06.049Z,77.38
2022-10-05T20:32:32.514Z,77.84
2022-10-05T20:34:59.083Z,78.14
2022-10-05T20:37:25.646Z,78.02
2022-10-05T20:39:52.674Z,78.64
2022-10-05T20:42:20.841Z,78.26
2022-10-05T20:44:49.937Z,78.19
2022-10-05T20:47:19.615Z,78.37
2022-10-05T20:49:46.098Z,78.34
2022-10-05T20:52:15.071Z,78.54
2022-10-05T20:54:42.322Z,78.38
2022-10-05T20:57:09.503Z,78.65
2022-10-05T20:59:36.326Z,78.78
2022-10-05T21:02:03.815Z,78.67
2022-10-05T21:04:40.826Z,78.89
2022-10-05T21:07:08.221Z,78.66
2022-10-05T21:09:34.740Z,78.76
2022-10-05T21:12:01.264Z,78.80
2022-10-05T21:14:34.114Z,78.51
2022-10-05T21:17:02.025Z,78.77
2022-10-05T21:19:29.516Z,78.61
2022-10-05T21:21:59.631Z,78.51
2022-10-05T21:24:26.482Z,78.42
2022-10-05T21:26:57.574Z,78.59
2022-10-05T21:29:24.232Z,78.47
2022-10-05T21:31:51.192Z,78.39
2022-10-05T21:34:17.806Z,78.19
2022-10-05T21:36:44.258Z,78.16
2022-10-05T21:39:10.842Z,78.44
2022-10-05T21:41:37.306Z,78.35
2022-10-05T21:44:04.168Z,78.42
2022-10-05T21:46:31.640Z,78.56
2022-10-05T21:48:58.299Z,78.35
2022-10-05T21:51:26.361Z,78.49
2022-10-05T21:54:01.778Z,78.32
2022-10-05T21:56:32.206Z,78.31
2022-10-05T21:59:00.907Z,78.54
2022-10-05T22:01:29.059Z,78.48
2022-10-05T22:03:56.962Z,78.39
2022-10-05T22:06:23.516Z,78.45
2022-10-05T22:08:50.059Z,78.55
2022-10-05T22:11:17.773Z,78.65
2022-10-05T22:13:48.744Z,78.80
2022-10-05T22:16:16.917Z,78.83
2022-10-05T22:18:43.847Z,78.66
2022-10-05T22:21:15.051Z,78.72
2022-10-05T22:23:43.671Z,78.85
2022-10-05T22:26:12.938Z,78.80
2022-10-05T22:28:40.949Z,78.65
2022-10-05T22:31:09.557Z,78.48
2022-10-05T22:33:37.356Z,78.57
2022-10-05T22:36:05.797Z,78.76
2022-10-05T22:38:32.690Z,78.58
2022-10-05T22:40:59.446Z,78.39
2022-10-05T22:43:27.019Z,78.36
2022-10-05T22:45:54.442Z,78.33
2022-10-05T22:48:21.094Z,78.21
2022-10-05T22:50:48.906Z,77.97
2022-10-05T22:53:15.544Z,77.93
2022-10-05T22:55:42.047Z,77.80
2022-10-05T22:58:08.529Z,77.74
2022-10-05T23:00:57.141Z,77.71
2022-10-05T23:03:21.760Z,77.57
2022-10-05T23:05:48.297Z,77.41
2022-10-05T23:08:16.106Z,77.60
2022-10-05T23:10:43.377Z,77.79
2022-10-05T23:13:09.895Z,77.58
2022-10-05T23:15:36.407Z,78.02
2022-10-05T23:18:02.944Z,77.40
